Home   Weather   USA   Beulah   Past weeks
Flag for USA

Past Weather in Beulah, North Dakota, USA — Yesterday and Last 2 Weeks

Currently: 41 °F. Passing clouds. (Weather station: Mercer County Regional Airport, USA). See more current weather

Past Weather in Beulah — Graph

°F

Beulah Temperature Yesterday

Maximum temperature yesterday: 64 °F (at 12:15 pm)
Minimum temperature yesterday: 36 °F (at 2:15 am)
Average temperature yesterday: 51 °F

High & Low Weather Summary for the Past Weeks

 TemperatureHumidityPressure
High82 °F (May 17, 1:55 pm)100% (May 5, 4:55 am)30.16 "Hg (May 5, 4:55 am)
Low32 °F (May 5, 4:55 am)20% (May 12, 4:35 pm)29.08 "Hg (May 7, 12:15 pm)
Average57 °F68%29.75 "Hg
* Reported May 5 4:55 am — May 20 4:15 am, Beulah. Weather by CustomWeather, © 2024

Note: Actual official high and low records may vary slightly from our data, if they occured in-between our weather recording intervals... More about our weather records

Beulah Weather History for the Previous 24 Hours

Scroll right to see more
 ConditionsComfort  
Time TempWeatherWind HumidityBarometerVisibility
4:15 am
Mon, May 20
41 °FPassing clouds.8 mph100%29.89 "Hg10 mi
3:35 am39 °FPassing clouds.5 mph100%29.89 "Hg10 mi
2:55 am41 °FClear.12 mph100%29.89 "Hg10 mi
2:15 am39 °FClear.No wind100%29.88 "Hg10 mi
1:55 am37 °FClear.No wind100%29.88 "Hg10 mi
1:35 am39 °FPassing clouds.No wind100%29.87 "Hg10 mi
1:15 am39 °FPassing clouds.No wind100%29.87 "Hg10 mi
12:55 am41 °FPassing clouds.No wind100%29.86 "Hg10 mi
12:35 am41 °FPassing clouds.No wind100%29.87 "Hg10 mi
11:55 pm
Sun, May 19
46 °FCool.5 mph93%29.87 "Hg10 mi
11:35 pm45 °FQuite cool.7 mph93%29.86 "Hg10 mi
11:15 pm48 °FPassing clouds.5 mph82%29.84 "Hg10 mi
10:55 pm50 °FPassing clouds.5 mph76%29.85 "Hg10 mi
10:35 pm50 °FPassing clouds.8 mph76%29.84 "Hg10 mi
10:15 pm50 °FPassing clouds.10 mph76%29.83 "Hg10 mi
9:55 pm52 °FPassing clouds.7 mph77%29.84 "Hg10 mi
9:35 pm52 °FPassing clouds.12 mph72%29.84 "Hg10 mi
8:55 pm57 °FOvercast.14 mph59%29.83 "Hg10 mi
8:15 pm59 °FBroken clouds.12 mph55%29.79 "Hg10 mi
7:55 pm59 °FBroken clouds.12 mph55%29.79 "Hg10 mi
7:35 pm61 °FOvercast.13 mph48%29.79 "Hg10 mi
7:15 pm61 °FPartly sunny.13 mph52%29.78 "Hg10 mi
6:55 pm61 °FSunny.14 mph48%29.75 "Hg10 mi
6:35 pm63 °FPassing clouds.18 mph45%29.75 "Hg10 mi
6:15 pm63 °FScattered clouds.17 mph45%29.76 "Hg10 mi
5:55 pm61 °FScattered clouds.17 mph48%29.75 "Hg10 mi
5:35 pm63 °FOvercast.15 mph49%29.77 "Hg10 mi
5:15 pm63 °FOvercast.15 mph45%29.77 "Hg10 mi
4:35 pm61 °FOvercast.15 mph48%29.77 "Hg10 mi
4:15 pm63 °FOvercast.16 mph45%29.76 "Hg10 mi
3:55 pm63 °FOvercast.15 mph45%29.77 "Hg10 mi
3:15 pm61 °FOvercast.15 mph48%29.79 "Hg10 mi
2:55 pm63 °FPartly sunny.15 mph45%29.79 "Hg10 mi
2:35 pm61 °FMostly cloudy.13 mph45%29.82 "Hg10 mi
2:15 pm63 °FPartly sunny.10 mph39%29.83 "Hg10 mi
1:55 pm63 °FScattered clouds.14 mph39%29.84 "Hg10 mi
1:35 pm63 °FSunny.14 mph39%29.84 "Hg10 mi
1:15 pm63 °FPassing clouds.14 mph39%29.83 "Hg10 mi
12:55 pm63 °FScattered clouds.15 mph37%29.86 "Hg10 mi
12:15 pm64 °FOvercast.13 mph37%29.84 "Hg10 mi
11:55 am63 °FOvercast.9 mph49%29.85 "Hg10 mi
11:35 am59 °FOvercast.8 mph63%29.85 "Hg10 mi
11:15 am59 °FOvercast.7 mph55%29.85 "Hg10 mi
10:55 am57 °FOvercast.5 mph63%29.86 "Hg10 mi
10:35 am54 °FOvercast.5 mph72%29.87 "Hg10 mi
10:15 am52 °FOvercast.5 mph77%29.88 "Hg10 mi
9:55 am50 °FOvercast.5 mph82%29.88 "Hg10 mi
9:35 am48 °FOvercast.5 mph87%29.89 "Hg10 mi
9:15 am46 °FOvercast.6 mph93%29.89 "Hg10 mi
8:15 am48 °FOvercast.No wind76%29.89 "Hg10 mi
7:55 am45 °FMostly cloudy.5 mph93%29.89 "Hg10 mi
7:35 am45 °FMostly cloudy.5 mph87%29.89 "Hg10 mi
7:15 am43 °FMore clouds than sun.No wind93%29.90 "Hg10 mi
6:55 am41 °FMostly cloudy.No wind100%29.90 "Hg10 mi
6:35 am41 °FCloudy.3 mph100%29.90 "Hg10 mi
6:15 am41 °FMore clouds than sun.5 mph93%29.91 "Hg10 mi
5:55 am39 °FMostly cloudy.5 mph100%29.90 "Hg10 mi
5:35 am39 °FOvercast.3 mph100%29.91 "Hg10 mi
5:15 am39 °FMostly cloudy.No wind93%29.91 "Hg10 mi
Weather by CustomWeather, © 2024

See weather overview